createdAt,value
2022-10-21T00:00:54.234Z,50.50
2022-10-21T00:03:36.608Z,54.75
2022-10-21T00:06:05.143Z,47.20
2022-10-21T00:08:32.790Z,53.22
2022-10-21T00:11:01.764Z,50.65
2022-10-21T00:13:31.001Z,49.75
2022-10-21T00:16:08.931Z,49.67
2022-10-21T00:18:37.692Z,52.42
2022-10-21T00:21:10.918Z,50.33
2022-10-21T00:23:38.304Z,52.72
2022-10-21T00:26:06.540Z,47.85
2022-10-21T00:28:33.858Z,50.85
2022-10-21T00:31:01.579Z,54.72
2022-10-21T00:33:29.454Z,46.00
2022-10-21T00:35:59.075Z,51.67
2022-10-21T00:38:26.453Z,47.88
2022-10-21T00:40:53.963Z,54.75
2022-10-21T00:43:21.585Z,47.08
2022-10-21T00:45:51.189Z,51.33
2022-10-21T00:48:30.313Z,49.80
2022-10-21T00:51:01.679Z,48.55
2022-10-21T00:53:29.333Z,52.20
2022-10-21T00:56:00.633Z,46.35
2022-10-21T00:58:30.629Z,47.58
2022-10-21T01:01:00.981Z,46.30
2022-10-21T01:03:29.867Z,46.25
2022-10-21T01:05:59.911Z,58.38
2022-10-21T01:08:28.224Z,53.17
2022-10-21T01:10:56.220Z,53.65
2022-10-21T01:13:40.210Z,58.58
2022-10-21T01:16:34.757Z,58.78
2022-10-21T01:19:20.814Z,59.47
2022-10-21T01:21:54.395Z,59.13
2022-10-21T01:25:06.559Z,60.78
2022-10-21T01:27:38.842Z,60.15
2022-10-21T01:30:31.150Z,40.93
2022-10-21T01:33:27.958Z,55.38
2022-10-21T01:36:01.527Z,51.20
2022-10-21T01:38:48.199Z,46.65
2022-10-21T01:41:33.860Z,50.17
2022-10-21T01:44:07.718Z,49.03
2022-10-21T01:46:42.231Z,46.15
2022-10-21T01:49:34.116Z,47.00
2022-10-21T01:52:02.583Z,52.60
2022-10-21T01:54:36.002Z,48.60
2022-10-21T01:57:05.005Z,45.13
2022-10-21T01:59:33.159Z,43.50
2022-10-21T02:02:02.334Z,48.35
2022-10-21T02:04:31.174Z,44.17
2022-10-21T02:06:58.407Z,41.58
2022-10-21T02:09:26.183Z,41.20
2022-10-21T02:11:58.069Z,42.53
2022-10-21T02:14:46.721Z,44.90
2022-10-21T02:17:17.301Z,45.08
2022-10-21T02:19:46.561Z,43.00
2022-10-21T02:22:17.912Z,45.28
2022-10-21T02:25:17.279Z,42.05
2022-10-21T02:27:44.964Z,42.38
2022-10-21T02:30:12.615Z,42.63
2022-10-21T02:32:45.940Z,42.97
2022-10-21T02:35:32.320Z,42.72
2022-10-21T02:38:09.799Z,46.15
2022-10-21T02:40:40.731Z,44.50
2022-10-21T02:43:14.014Z,46.28
2022-10-21T02:45:42.150Z,36.92
2022-10-21T02:48:09.355Z,48.50
2022-10-21T02:50:37.096Z,40.38
2022-10-21T02:53:04.445Z,41.95
2022-10-21T02:55:31.944Z,39.10
2022-10-21T02:57:59.182Z,39.13
2022-10-21T03:00:30.731Z,48.45
2022-10-21T03:03:00.385Z,39.30
2022-10-21T03:05:27.999Z,40.88
2022-10-21T03:07:55.371Z,41.42
2022-10-21T03:10:23.060Z,35.63
2022-10-21T03:12:50.462Z,38.67
2022-10-21T03:15:18.041Z,38.13
2022-10-21T03:17:45.344Z,36.80
2022-10-21T03:20:12.901Z,38.17
2022-10-21T03:22:40.125Z,39.38
2022-10-21T03:25:08.781Z,41.15
2022-10-21T03:27:36.014Z,39.97
2022-10-21T03:30:06.652Z,38.72
2022-10-21T03:32:34.254Z,42.47
2022-10-21T03:35:02.081Z,36.53
2022-10-21T03:37:29.290Z,40.28
2022-10-21T03:39:56.874Z,39.63
2022-10-21T03:42:24.199Z,44.38
2022-10-21T03:44:51.684Z,37.40
2022-10-21T03:47:19.135Z,39.70
2022-10-21T03:49:46.971Z,39.70
2022-10-21T03:52:14.357Z,39.92
2022-10-21T03:54:41.874Z,40.90
2022-10-21T03:57:09.374Z,42.47
2022-10-21T03:59:36.909Z,41.90
2022-10-21T04:02:04.204Z,39.25
2022-10-21T04:04:31.900Z,38.67
2022-10-21T04:06:59.169Z,41.20
2022-10-21T04:09:26.804Z,43.67
2022-10-21T04:11:54.264Z,42.03
2022-10-21T04:14:21.944Z,39.42
2022-10-21T04:16:53.614Z,45.05
2022-10-21T04:19:29.743Z,38.08
2022-10-21T04:21:57.241Z,34.67
2022-10-21T04:24:24.899Z,38.65
2022-10-21T04:26:52.129Z,37.97
2022-10-21T04:29:19.699Z,39.65
2022-10-21T04:32:47.069Z,38.17
2022-10-21T04:35:15.063Z,42.28
2022-10-21T04:37:43.406Z,38.78
2022-10-21T04:40:11.433Z,38.88
2022-10-21T04:42:39.074Z,36.28
2022-10-21T04:45:07.266Z,35.35
2022-10-21T04:47:34.730Z,40.42
2022-10-21T04:50:02.332Z,38.17
2022-10-21T04:52:29.811Z,38.00
2022-10-21T04:54:57.394Z,39.38
2022-10-21T04:57:24.644Z,35.03
2022-10-21T04:59:52.210Z,36.17
2022-10-21T05:02:21.713Z,32.55
2022-10-21T05:04:52.086Z,35.30
2022-10-21T05:07:19.393Z,33.38
2022-10-21T05:09:46.944Z,33.15
2022-10-21T05:12:14.363Z,32.22
2022-10-21T05:14:41.955Z,33.10
2022-10-21T05:17:09.403Z,27.52
2022-10-21T05:19:37.092Z,32.78
2022-10-21T05:22:04.492Z,33.70
2022-10-21T05:24:31.965Z,32.70
2022-10-21T05:26:59.482Z,32.38
2022-10-21T05:29:27.185Z,30.15
2022-10-21T05:31:54.570Z,31.08
2022-10-21T05:34:22.411Z,30.95
2022-10-21T05:36:49.870Z,32.10
2022-10-21T05:39:17.453Z,30.05
2022-10-21T05:41:47.777Z,29.67
2022-10-21T05:44:16.408Z,32.30
2022-10-21T05:46:43.948Z,31.67
2022-10-21T05:49:11.563Z,32.72
2022-10-21T05:51:39.152Z,29.77
2022-10-21T05:54:06.799Z,29.02
2022-10-21T05:56:35.006Z,26.90
2022-10-21T05:59:05.438Z,34.40
2022-10-21T06:01:35.552Z,33.42
2022-10-21T06:04:03.924Z,29.33
2022-10-21T06:06:31.434Z,33.78
2022-10-21T06:08:59.218Z,31.25
2022-10-21T06:11:27.236Z,30.92
2022-10-21T06:13:56.508Z,34.08
2022-10-21T06:16:25.693Z,30.27
2022-10-21T06:18:53.137Z,29.70
2022-10-21T06:21:21.627Z,32.03
2022-10-21T06:23:53.699Z,31.40
2022-10-21T06:26:21.159Z,35.95
2022-10-21T06:28:48.615Z,41.65
2022-10-21T06:31:18.414Z,32.08
2022-10-21T06:33:45.947Z,34.22
2022-10-21T06:36:14.040Z,31.85
2022-10-21T06:38:42.485Z,27.77
2022-10-21T06:41:13.584Z,25.63
2022-10-21T06:43:44.484Z,32.13
2022-10-21T06:46:13.973Z,31.30
2022-10-21T06:48:42.199Z,30.45
2022-10-21T06:51:15.603Z,33.35
2022-10-21T06:53:44.161Z,25.48
2022-10-21T06:56:14.650Z,33.17
2022-10-21T06:58:49.224Z,26.95
2022-10-21T07:01:34.555Z,30.38
2022-10-21T07:04:10.330Z,26.45
2022-10-21T07:06:37.925Z,24.90
2022-10-21T07:09:07.004Z,31.15
2022-10-21T07:11:34.486Z,28.17
2022-10-21T07:14:02.280Z,26.52
2022-10-21T07:16:32.021Z,22.58
2022-10-21T07:19:00.045Z,24.33
2022-10-21T07:21:29.762Z,25.30
2022-10-21T07:23:59.276Z,23.83
2022-10-21T07:26:29.349Z,25.77
2022-10-21T07:28:58.686Z,23.85
2022-10-21T07:31:26.842Z,24.85
2022-10-21T07:33:54.581Z,31.25
2022-10-21T07:36:25.094Z,29.27
2022-10-21T07:38:54.292Z,22.33
2022-10-21T07:41:25.406Z,25.25
2022-10-21T07:43:53.823Z,28.88
2022-10-21T07:46:22.466Z,25.60
2022-10-21T07:48:50.516Z,23.83
2022-10-21T07:51:21.363Z,23.42
2022-10-21T07:53:50.772Z,23.30
2022-10-21T07:56:21.012Z,26.90
2022-10-21T07:58:49.002Z,22.67
2022-10-21T08:01:17.457Z,25.15
2022-10-21T08:03:46.491Z,21.58
2022-10-21T08:06:15.957Z,24.20
2022-10-21T08:08:43.986Z,25.90
2022-10-21T08:11:11.993Z,24.38
2022-10-21T08:13:41.606Z,28.13
2022-10-21T08:16:08.961Z,27.77
2022-10-21T08:18:36.654Z,25.58
2022-10-21T08:21:05.028Z,24.77
2022-10-21T08:23:32.623Z,28.00
2022-10-21T08:26:01.397Z,23.20
2022-10-21T08:28:30.573Z,29.63
2022-10-21T08:31:09.044Z,24.27
2022-10-21T08:33:37.198Z,26.60
2022-10-21T08:36:09.760Z,23.45
2022-10-21T08:38:37.541Z,21.70
2022-10-21T08:41:12.463Z,27.00
2022-10-21T08:43:40.151Z,24.88
2022-10-21T08:46:21.181Z,25.45
2022-10-21T08:48:56.120Z,22.52
2022-10-21T08:51:28.624Z,22.08
2022-10-21T08:53:58.546Z,25.23
2022-10-21T08:56:26.312Z,21.92
2022-10-21T08:58:53.818Z,24.08
2022-10-21T09:01:39.751Z,22.88
2022-10-21T09:04:24.394Z,25.77
2022-10-21T09:07:19.726Z,24.10
2022-10-21T09:09:53.709Z,27.63
2022-10-21T09:12:59.782Z,30.15
2022-10-21T09:15:45.749Z,23.23
2022-10-21T09:18:26.671Z,31.80
2022-10-21T09:21:08.871Z,26.20
2022-10-21T09:23:56.540Z,26.85
2022-10-21T09:26:56.831Z,23.02
2022-10-21T09:29:33.001Z,20.67
2022-10-21T09:35:38.649Z,26.92
2022-10-21T09:38:33.283Z,31.77
2022-10-21T09:41:03.592Z,23.80
2022-10-21T09:43:31.652Z,21.35
2022-10-21T09:45:59.510Z,24.85
2022-10-21T09:48:33.726Z,26.85
2022-10-21T09:51:11.310Z,24.10
2022-10-21T09:53:51.686Z,24.80
2022-10-21T09:56:25.029Z,23.20
2022-10-21T09:59:09.381Z,28.38
2022-10-21T10:01:39.312Z,26.25
2022-10-21T10:04:30.874Z,21.10
2022-10-21T10:07:01.386Z,23.00
2022-10-21T10:09:31.009Z,20.30
2022-10-21T10:12:03.819Z,22.48
2022-10-21T10:17:33.900Z,19.27
2022-10-21T10:20:29.010Z,20.00
2022-10-21T10:22:58.437Z,20.73
2022-10-21T10:25:31.039Z,21.60
2022-10-21T10:39:51.719Z,19.52
2022-10-21T10:42:34.545Z,16.55
2022-10-21T10:45:13.148Z,18.90
2022-10-21T10:47:57.735Z,19.60
2022-10-21T10:50:45.425Z,21.95
2022-10-21T10:53:38.552Z,17.75
2022-10-21T10:56:05.933Z,18.73
2022-10-21T10:58:37.035Z,20.33
2022-10-21T11:01:10.789Z,19.65
2022-10-21T11:03:45.463Z,23.30
2022-10-21T11:06:16.835Z,20.65
2022-10-21T11:08:48.599Z,19.42
2022-10-21T11:11:26.229Z,21.20
2022-10-21T11:13:53.962Z,24.98
2022-10-21T11:16:44.925Z,21.13
2022-10-21T11:19:30.341Z,22.98
2022-10-21T11:22:28.691Z,21.92
2022-10-21T11:24:59.791Z,23.83
2022-10-21T11:27:45.690Z,23.42
2022-10-21T11:31:04.490Z,17.58
2022-10-21T11:33:47.591Z,19.15
2022-10-21T11:36:37.620Z,20.08
2022-10-21T11:39:42.343Z,23.05
2022-10-21T11:42:18.779Z,21.42
2022-10-21T11:45:01.253Z,16.65
2022-10-21T11:48:04.400Z,17.20
2022-10-21T11:50:38.345Z,20.95
2022-10-21T11:53:32.729Z,19.90
2022-10-21T11:56:22.799Z,19.38
2022-10-21T11:59:12.257Z,17.83
2022-10-21T12:01:56.656Z,21.08
2022-10-21T12:04:46.943Z,17.23
2022-10-21T12:07:32.841Z,15.30
2022-10-21T12:10:05.454Z,18.10
2022-10-21T12:12:36.309Z,21.80
2022-10-21T12:15:21.741Z,14.35
2022-10-21T12:17:49.799Z,17.58
2022-10-21T12:20:23.845Z,16.33
2022-10-21T12:22:57.675Z,19.10
2022-10-21T12:25:37.661Z,17.30
2022-10-21T12:28:12.015Z,18.83
2022-10-21T12:31:07.349Z,15.65
2022-10-21T12:33:43.908Z,17.02
2022-10-21T12:36:24.878Z,17.40
2022-10-21T12:38:54.527Z,18.33
2022-10-21T12:41:24.913Z,17.48
2022-10-21T12:43:54.283Z,18.98
2022-10-21T12:46:28.189Z,18.17
2022-10-21T12:48:55.745Z,22.38
2022-10-21T12:51:28.984Z,15.95
2022-10-21T12:54:02.333Z,20.15
2022-10-21T12:56:31.755Z,16.65
2022-10-21T12:59:03.216Z,15.10
2022-10-21T13:01:43.308Z,18.10
2022-10-21T13:04:32.096Z,16.83
2022-10-21T13:07:09.358Z,15.20
2022-10-21T13:09:40.770Z,16.52
2022-10-21T13:12:11.052Z,21.90
2022-10-21T13:14:49.560Z,15.82
2022-10-21T13:17:22.953Z,18.40
2022-10-21T13:22:32.001Z,19.52
2022-10-21T13:25:22.888Z,17.63
2022-10-21T13:28:16.883Z,18.40
2022-10-21T13:30:50.376Z,13.20
2022-10-21T13:33:38.465Z,14.90
2022-10-21T13:36:13.525Z,21.77
2022-10-21T13:38:50.061Z,17.35
2022-10-21T13:41:27.451Z,14.73
2022-10-21T13:44:04.305Z,19.13
2022-10-21T13:46:39.122Z,14.45
2022-10-21T13:49:32.463Z,14.75
2022-10-21T13:52:00.008Z,25.20
2022-10-21T13:54:35.625Z,16.58
2022-10-21T13:57:07.747Z,14.30
2022-10-21T13:59:35.718Z,17.27
2022-10-21T14:02:04.208Z,19.73
2022-10-21T14:04:36.018Z,23.73
2022-10-21T14:07:09.477Z,27.70
2022-10-21T14:09:43.554Z,19.48
2022-10-21T14:12:28.471Z,19.40
2022-10-21T14:14:58.279Z,17.83
2022-10-21T14:17:27.481Z,20.35
2022-10-21T14:20:02.913Z,17.60
2022-10-21T14:22:32.890Z,18.92
2022-10-21T14:25:04.252Z,18.45
2022-10-21T14:27:34.578Z,22.42
2022-10-21T14:30:05.830Z,36.60
2022-10-21T14:32:34.110Z,36.92
2022-10-21T14:35:10.884Z,60.72
2022-10-21T14:37:55.065Z,22.25
2022-10-21T14:40:38.424Z,25.10
2022-10-21T14:43:17.819Z,22.20
2022-10-21T14:45:48.941Z,16.92
2022-10-21T14:48:30.680Z,25.73
2022-10-21T14:51:11.348Z,24.85
2022-10-21T14:53:59.766Z,20.88
2022-10-21T14:56:34.073Z,19.38
2022-10-21T14:59:07.594Z,28.05
2022-10-21T15:01:35.510Z,19.35
2022-10-21T15:04:03.464Z,19.48
2022-10-21T15:06:36.078Z,18.27
2022-10-21T15:09:18.202Z,22.10
2022-10-21T15:11:49.106Z,17.80
2022-10-21T15:14:28.997Z,16.63
2022-10-21T15:16:59.560Z,23.10
2022-10-21T15:19:48.388Z,20.52
2022-10-21T15:22:24.994Z,13.07
2022-10-21T15:24:53.095Z,18.50
2022-10-21T15:27:42.723Z,16.67
2022-10-21T15:30:13.521Z,21.13
2022-10-21T15:32:41.468Z,13.65
2022-10-21T15:35:21.341Z,17.20
2022-10-21T15:37:53.357Z,21.80
2022-10-21T15:40:22.109Z,16.05
2022-10-21T15:42:49.774Z,15.30
2022-10-21T15:45:20.030Z,16.25
2022-10-21T15:47:53.982Z,15.05
2022-10-21T15:50:27.013Z,16.20
2022-10-21T15:55:21.699Z,18.80
2022-10-21T15:57:49.270Z,15.25
2022-10-21T16:00:19.200Z,21.02
2022-10-21T16:02:47.564Z,21.98
2022-10-21T16:05:17.074Z,20.70
2022-10-21T16:07:45.151Z,17.25
2022-10-21T16:10:23.024Z,31.95
2022-10-21T16:12:51.256Z,17.23
2022-10-21T16:15:20.229Z,17.90
2022-10-21T16:17:51.060Z,25.92
2022-10-21T16:20:21.998Z,24.80
2022-10-21T16:22:49.955Z,20.33
2022-10-21T16:25:18.281Z,17.50
2022-10-21T16:28:01.683Z,16.75
2022-10-21T16:30:34.601Z,20.48
2022-10-21T16:33:02.721Z,17.55
2022-10-21T16:35:30.058Z,18.05
2022-10-21T16:37:58.359Z,19.65
2022-10-21T16:40:28.518Z,25.20
2022-10-21T16:42:56.146Z,16.85
2022-10-21T16:45:24.690Z,24.20
2022-10-21T16:47:56.369Z,20.35
2022-10-21T16:50:26.388Z,19.38
2022-10-21T16:52:54.282Z,22.33
2022-10-21T16:55:21.906Z,22.70
2022-10-21T16:57:49.800Z,20.48
2022-10-21T17:00:18.130Z,39.00
2022-10-21T17:02:48.471Z,21.58
2022-10-21T17:05:15.988Z,23.92
2022-10-21T17:07:43.721Z,19.85
2022-10-21T17:10:11.142Z,20.38
2022-10-21T17:12:38.827Z,17.92
2022-10-21T17:15:07.107Z,21.33
2022-10-21T17:17:36.777Z,22.80
2022-10-21T17:20:04.783Z,22.70
2022-10-21T17:22:32.561Z,25.40
2022-10-21T17:25:00.120Z,18.98
2022-10-21T17:27:27.758Z,25.15
2022-10-21T17:29:55.443Z,22.80
2022-10-21T17:32:24.983Z,19.70
2022-10-21T17:34:52.456Z,29.90
2022-10-21T17:37:20.669Z,24.48
2022-10-21T17:39:48.201Z,23.42
2022-10-21T17:42:20.644Z,28.48
2022-10-21T17:44:49.485Z,29.87
2022-10-21T17:47:17.549Z,19.60
2022-10-21T17:49:44.940Z,25.52
2022-10-21T17:52:12.558Z,21.98
2022-10-21T17:54:39.825Z,30.15
2022-10-21T17:57:07.754Z,36.88
2022-10-21T17:59:35.381Z,36.95
2022-10-21T18:02:03.154Z,33.75
2022-10-21T18:04:31.986Z,27.23
2022-10-21T18:06:59.628Z,32.05
2022-10-21T18:09:27.086Z,29.08
2022-10-21T18:11:54.883Z,24.42
2022-10-21T18:14:22.315Z,63.38
2022-10-21T18:16:49.952Z,39.10
2022-10-21T18:19:17.339Z,37.78
2022-10-21T18:21:45.160Z,43.53
2022-10-21T18:24:12.901Z,38.50
2022-10-21T18:26:41.264Z,53.35
2022-10-21T18:29:09.050Z,39.40
2022-10-21T18:31:37.664Z,28.35
2022-10-21T18:34:06.575Z,89.15
2022-10-21T18:36:34.703Z,65.88
2022-10-21T18:39:02.387Z,57.38
2022-10-21T18:41:30.660Z,42.35
2022-10-21T18:44:01.489Z,37.13
2022-10-21T18:46:30.077Z,39.72
2022-10-21T18:48:58.178Z,39.85
2022-10-21T18:51:26.023Z,44.58
2022-10-21T18:53:53.907Z,34.33
2022-10-21T18:56:24.482Z,43.10
2022-10-21T18:58:52.726Z,34.78
2022-10-21T19:01:21.675Z,47.00
2022-10-21T19:03:53.991Z,49.38
2022-10-21T19:06:40.214Z,46.05
2022-10-21T19:09:13.455Z,60.88
2022-10-21T19:11:42.272Z,60.20
2022-10-21T19:14:13.029Z,40.28
2022-10-21T19:16:43.112Z,35.95
2022-10-21T19:19:11.142Z,32.67
2022-10-21T19:21:39.174Z,37.20
2022-10-21T19:24:07.267Z,39.10
2022-10-21T19:26:37.093Z,43.03
2022-10-21T19:29:13.499Z,41.65
2022-10-21T19:31:42.404Z,37.40
2022-10-21T19:34:16.625Z,43.53
2022-10-21T19:36:44.669Z,34.72
2022-10-21T19:39:12.254Z,39.65
2022-10-21T19:41:40.402Z,42.13
2022-10-21T19:44:08.885Z,40.88
2022-10-21T19:46:37.498Z,45.70
2022-10-21T19:49:08.090Z,41.60
2022-10-21T19:51:36.141Z,36.38
2022-10-21T19:54:05.284Z,38.92
2022-10-21T19:56:35.448Z,37.92
2022-10-21T19:59:05.405Z,36.63
2022-10-21T20:01:34.502Z,35.67
2022-10-21T20:04:02.886Z,33.45
2022-10-21T20:06:33.507Z,85.25
2022-10-21T20:09:07.778Z,61.85
2022-10-21T20:11:36.370Z,48.45
2022-10-21T20:14:04.774Z,64.78
2022-10-21T20:16:38.582Z,52.92
2022-10-21T20:19:07.179Z,41.40
2022-10-21T20:21:36.350Z,46.33
2022-10-21T20:24:04.485Z,42.42
2022-10-21T20:26:32.665Z,33.35
2022-10-21T20:29:02.156Z,53.55
2022-10-21T20:31:30.415Z,53.53
2022-10-21T20:33:58.362Z,47.08
2022-10-21T20:36:29.326Z,49.22
2022-10-21T20:38:58.998Z,45.40
2022-10-21T20:41:34.350Z,49.65
2022-10-21T20:44:02.957Z,45.72
2022-10-21T20:46:36.314Z,48.65
2022-10-21T20:51:32.896Z,45.60
2022-10-21T20:54:03.271Z,44.80
2022-10-21T20:56:36.393Z,48.75
2022-10-21T20:59:05.416Z,48.40
2022-10-21T21:01:35.526Z,47.65
2022-10-21T21:04:06.162Z,45.22
2022-10-21T21:06:39.242Z,47.25
2022-10-21T21:09:43.760Z,45.03
2022-10-21T21:11:55.090Z,42.35
2022-10-21T21:14:22.325Z,42.28
2022-10-21T21:16:50.119Z,43.88
2022-10-21T21:19:19.594Z,37.47
2022-10-21T21:21:47.145Z,37.70
2022-10-21T21:24:14.565Z,36.35
2022-10-21T21:26:42.382Z,32.92
2022-10-21T21:29:09.751Z,36.83
2022-10-21T21:31:38.637Z,36.78
2022-10-21T21:34:24.123Z,35.15
2022-10-21T21:37:07.040Z,33.75
2022-10-21T21:39:39.240Z,36.25
2022-10-21T21:42:19.557Z,36.97
2022-10-21T21:45:00.547Z,38.83
2022-10-21T21:47:41.096Z,43.75
2022-10-21T21:50:15.341Z,43.92
2022-10-21T21:52:48.817Z,42.00
2022-10-21T21:55:32.826Z,40.80
2022-10-21T21:58:17.176Z,40.90
2022-10-21T22:07:25.772Z,38.85
2022-10-21T22:10:15.650Z,37.75
2022-10-21T22:12:59.078Z,39.63
2022-10-21T22:16:05.834Z,41.00
2022-10-21T22:18:47.036Z,47.10
2022-10-21T22:21:27.134Z,39.67
2022-10-21T22:24:07.447Z,40.85
2022-10-21T22:26:40.398Z,45.97
2022-10-21T22:32:14.058Z,43.00
2022-10-21T22:34:44.346Z,43.53
2022-10-21T22:37:20.759Z,45.90
2022-10-21T22:39:52.014Z,37.92
2022-10-21T22:42:25.322Z,46.08
2022-10-21T22:44:58.250Z,42.20
2022-10-21T22:47:28.200Z,44.35
2022-10-21T22:49:59.544Z,42.22
2022-10-21T22:52:30.067Z,45.35
2022-10-21T22:55:00.588Z,41.75
2022-10-21T22:57:29.170Z,47.40
2022-10-21T22:59:57.547Z,46.30
2022-10-21T23:02:27.633Z,44.83
2022-10-21T23:04:57.386Z,36.85
2022-10-21T23:07:36.227Z,45.22
2022-10-21T23:10:33.462Z,42.28
2022-10-21T23:13:04.579Z,46.40
2022-10-21T23:15:43.760Z,42.60
2022-10-21T23:18:15.160Z,45.42
2022-10-21T23:20:52.790Z,41.35
2022-10-21T23:23:27.553Z,40.65
2022-10-21T23:25:59.553Z,40.15
2022-10-21T23:28:27.259Z,46.28
2022-10-21T23:30:55.009Z,45.40
2022-10-21T23:33:23.399Z,44.38
2022-10-21T23:35:51.470Z,43.00
2022-10-21T23:38:19.123Z,41.22
2022-10-21T23:40:46.709Z,48.08
2022-10-21T23:43:14.045Z,46.97
2022-10-21T23:45:41.385Z,44.10
2022-10-21T23:48:08.733Z,47.95
2022-10-21T23:50:37.945Z,44.13
2022-10-21T23:53:08.394Z,47.15
2022-10-21T23:55:36.262Z,45.85
2022-10-21T23:58:03.764Z,49.63
